createdAt,value
2023-05-20T00:01:20.283Z,102201.31
2023-05-20T00:03:47.827Z,102190.50
2023-05-20T00:06:15.555Z,102205.22
2023-05-20T00:08:43.000Z,102192.66
2023-05-20T00:11:10.602Z,102192.03
2023-05-20T00:13:39.031Z,102195.53
2023-05-20T00:16:07.948Z,102198.03
2023-05-20T00:18:35.463Z,102181.84
2023-05-20T00:21:02.928Z,102194.72
2023-05-20T00:23:30.379Z,102195.41
2023-05-20T00:26:00.439Z,102191.84
2023-05-20T00:28:28.221Z,102183.81
2023-05-20T00:30:55.863Z,102186.16
2023-05-20T00:33:24.743Z,102185.97
2023-05-20T00:35:52.203Z,102188.66
2023-05-20T00:38:19.665Z,102181.91
2023-05-20T00:40:47.128Z,102202.13
2023-05-20T00:43:14.554Z,102192.75
2023-05-20T00:45:42.467Z,102199.94
2023-05-20T00:48:10.185Z,102193.09
2023-05-20T00:50:39.085Z,102196.13
2023-05-20T00:53:07.533Z,102199.63
2023-05-20T00:55:35.882Z,102198.84
2023-05-20T00:58:03.570Z,102197.78
2023-05-20T01:00:31.186Z,102192.03
2023-05-20T01:02:59.377Z,102183.66
2023-05-20T01:05:27.053Z,102187.16
2023-05-20T01:07:56.001Z,102181.91
2023-05-20T01:10:25.281Z,102176.59
2023-05-20T01:13:02.270Z,102186.38
2023-05-20T01:15:31.144Z,102182.97
2023-05-20T01:18:02.236Z,102170.91
2023-05-20T01:20:32.382Z,102175.94
2023-05-20T01:23:01.377Z,102174.44
2023-05-20T01:25:29.016Z,102171.91
2023-05-20T01:27:58.662Z,102170.84
2023-05-20T01:30:30.498Z,102176.38
2023-05-20T01:33:02.325Z,102174.19
2023-05-20T01:35:30.816Z,102168.09
2023-05-20T01:37:59.748Z,102168.09
2023-05-20T01:40:29.152Z,102161.75
2023-05-20T01:42:58.934Z,102146.59
2023-05-20T01:45:26.935Z,102156.34
2023-05-20T01:47:54.642Z,102165.28
2023-05-20T01:50:22.319Z,102160.31
2023-05-20T01:52:49.787Z,102162.72
2023-05-20T01:55:17.306Z,102157.75
2023-05-20T01:57:46.214Z,102157.75
2023-05-20T02:00:14.289Z,102156.53
2023-05-20T02:02:41.856Z,102146.00
2023-05-20T02:05:10.354Z,102154.41
2023-05-20T02:07:37.857Z,102150.66
2023-05-20T02:10:06.117Z,102158.19
2023-05-20T02:12:33.580Z,102146.34
2023-05-20T02:15:02.654Z,102159.94
2023-05-20T02:17:30.159Z,102151.72
2023-05-20T02:19:57.612Z,102151.53
2023-05-20T02:22:25.030Z,102154.75
2023-05-20T02:24:52.464Z,102151.13
2023-05-20T02:27:19.907Z,102156.34
2023-05-20T02:29:47.361Z,102161.22
2023-05-20T02:32:16.551Z,102148.56
2023-05-20T02:34:43.990Z,102149.59
2023-05-20T02:37:11.442Z,102150.81
2023-05-20T02:39:38.875Z,102159.69
2023-05-20T02:42:06.530Z,102159.41
2023-05-20T02:44:33.966Z,102156.34
2023-05-20T02:47:01.399Z,102165.63
2023-05-20T02:49:30.164Z,102158.06
2023-05-20T02:51:57.637Z,102169.97
2023-05-20T02:54:25.059Z,102154.72
2023-05-20T02:56:52.497Z,102168.66
2023-05-20T02:59:19.886Z,102153.75
2023-05-20T03:01:47.396Z,102163.66
2023-05-20T03:04:14.958Z,102161.41
2023-05-20T03:06:44.506Z,102163.72
2023-05-20T03:09:12.116Z,102168.50
2023-05-20T03:11:39.538Z,102167.81
2023-05-20T03:14:06.972Z,102176.53
2023-05-20T03:16:35.414Z,102173.38
2023-05-20T03:19:03.040Z,102178.56
2023-05-20T03:21:30.533Z,102179.50
2023-05-20T03:23:59.304Z,102176.69
2023-05-20T03:26:26.849Z,102177.88
2023-05-20T03:28:54.294Z,102175.13
2023-05-20T03:31:21.757Z,102178.59
2023-05-20T03:33:49.266Z,102184.28
2023-05-20T03:36:16.756Z,102179.84
2023-05-20T03:38:44.186Z,102180.72
2023-05-20T03:41:13.034Z,102192.34
2023-05-20T03:43:40.611Z,102185.81
2023-05-20T03:46:08.087Z,102187.00
2023-05-20T03:48:35.642Z,102193.56
2023-05-20T03:51:03.476Z,102194.38
2023-05-20T03:53:30.989Z,102191.34
2023-05-20T03:55:58.447Z,102191.41
2023-05-20T03:58:29.205Z,102187.72
2023-05-20T04:00:56.953Z,102206.59
2023-05-20T04:03:24.614Z,102191.56
2023-05-20T04:05:52.163Z,102188.50
2023-05-20T04:08:19.833Z,102190.66
2023-05-20T04:10:47.325Z,102188.06
2023-05-20T04:13:15.022Z,102181.84
2023-05-20T04:15:44.293Z,102181.91
2023-05-20T04:18:12.056Z,102185.97
2023-05-20T04:20:41.326Z,102186.47
2023-05-20T04:23:08.833Z,102185.97
2023-05-20T04:25:37.016Z,102181.56
2023-05-20T04:28:04.888Z,102182.16
2023-05-20T04:30:33.430Z,102180.38
2023-05-20T04:33:03.571Z,102181.31
2023-05-20T04:35:31.461Z,102186.13
2023-05-20T04:37:59.328Z,102180.41
2023-05-20T04:40:27.447Z,102186.47
2023-05-20T04:42:55.832Z,102192.47
2023-05-20T04:45:23.951Z,102191.88
2023-05-20T04:47:53.215Z,102194.81
2023-05-20T04:50:22.251Z,102196.59
2023-05-20T04:52:50.671Z,102199.91
2023-05-20T04:55:18.561Z,102197.53
2023-05-20T04:57:46.467Z,102198.50
2023-05-20T05:00:14.687Z,102188.97
2023-05-20T05:02:42.213Z,102187.09
2023-05-20T05:05:10.019Z,102179.91
2023-05-20T05:07:39.757Z,102173.75
2023-05-20T05:10:07.980Z,102179.59
2023-05-20T05:12:35.502Z,102174.59
2023-05-20T05:15:02.924Z,102176.25
2023-05-20T05:17:30.449Z,102176.41
2023-05-20T05:19:58.013Z,102173.88
2023-05-20T05:22:25.435Z,102170.53
2023-05-20T05:24:55.695Z,102171.47
2023-05-20T05:27:23.845Z,102177.47
2023-05-20T05:29:51.251Z,102177.41
2023-05-20T05:32:18.768Z,102173.94
2023-05-20T05:34:46.692Z,102182.25
2023-05-20T05:37:14.141Z,102178.50
2023-05-20T05:39:41.664Z,102169.97
2023-05-20T05:42:10.464Z,102176.78
2023-05-20T05:44:37.902Z,102170.53
2023-05-20T05:47:06.729Z,102164.63
2023-05-20T05:49:34.570Z,102177.63
2023-05-20T05:52:02.054Z,102174.91
2023-05-20T05:54:29.541Z,102174.66
2023-05-20T05:56:57.426Z,102166.38
2023-05-20T05:59:26.266Z,102156.84
2023-05-20T06:01:53.766Z,102156.53
2023-05-20T06:04:21.358Z,102154.59
2023-05-20T06:06:49.352Z,102151.16
2023-05-20T06:09:16.794Z,102158.25
2023-05-20T06:11:44.450Z,102154.88
2023-05-20T06:14:11.936Z,102144.28
2023-05-20T06:16:40.761Z,102146.13
2023-05-20T06:19:09.500Z,102141.88
2023-05-20T06:21:37.289Z,102145.19
2023-05-20T06:24:05.064Z,102153.97
2023-05-20T06:26:32.605Z,102163.03
2023-05-20T06:29:00.021Z,102154.66
2023-05-20T06:31:27.611Z,102156.34
2023-05-20T06:33:56.801Z,102159.97
2023-05-20T06:36:24.249Z,102148.66
2023-05-20T06:38:51.696Z,102155.38
2023-05-20T06:41:19.102Z,102155.72
2023-05-20T06:43:47.518Z,102154.66
2023-05-20T06:46:15.089Z,102159.13
2023-05-20T06:48:42.586Z,102163.72
2023-05-20T06:51:11.367Z,102155.72
2023-05-20T06:53:38.809Z,102158.81
2023-05-20T06:56:06.898Z,102154.22
2023-05-20T06:58:34.363Z,102145.63
2023-05-20T07:01:01.892Z,102146.91
2023-05-20T07:03:30.437Z,102140.31
2023-05-20T07:05:57.918Z,102149.44
2023-05-20T07:08:26.707Z,102150.03
2023-05-20T07:10:56.491Z,102152.28
2023-05-20T07:13:24.236Z,102148.25
2023-05-20T07:15:51.706Z,102144.78
2023-05-20T07:18:19.826Z,102142.97
2023-05-20T07:20:47.307Z,102145.78
2023-05-20T07:23:15.851Z,102147.09
2023-05-20T07:25:44.732Z,102137.53
2023-05-20T07:28:12.210Z,102140.44
2023-05-20T07:30:39.677Z,102139.38
2023-05-20T07:33:07.161Z,102141.50
2023-05-20T07:35:34.857Z,102138.06
2023-05-20T07:38:02.437Z,102133.66
2023-05-20T07:40:29.852Z,102128.19
2023-05-20T07:42:58.696Z,102121.34
2023-05-20T07:45:26.171Z,102111.03
2023-05-20T07:47:53.782Z,102127.84
2023-05-20T07:50:21.507Z,102132.00
2023-05-20T07:52:56.582Z,102123.13
2023-05-20T07:55:26.346Z,102119.78
2023-05-20T07:57:53.874Z,102119.72
2023-05-20T08:00:23.062Z,102116.84
2023-05-20T08:02:50.785Z,102116.28
2023-05-20T08:05:18.560Z,102101.34
2023-05-20T08:07:46.043Z,102111.34
2023-05-20T08:10:13.486Z,102101.66
2023-05-20T08:12:41.185Z,102102.03
2023-05-20T08:15:09.552Z,102100.47
2023-05-20T08:17:38.848Z,102107.78
2023-05-20T08:20:08.091Z,102095.09
2023-05-20T08:22:36.102Z,102095.06
2023-05-20T08:25:04.072Z,102092.38
2023-05-20T08:27:31.558Z,102094.78
2023-05-20T08:30:00.583Z,102108.00
2023-05-20T08:32:28.518Z,102091.53
2023-05-20T08:34:57.300Z,102088.41
2023-05-20T08:37:24.754Z,102085.34
2023-05-20T08:39:52.181Z,102081.50
2023-05-20T08:42:22.727Z,102071.31
2023-05-20T08:44:51.889Z,102075.47
2023-05-20T08:47:20.956Z,102070.81
2023-05-20T08:49:48.778Z,102079.44
2023-05-20T08:52:19.111Z,102078.53
2023-05-20T08:54:51.545Z,102075.97
2023-05-20T08:57:20.370Z,102071.13
2023-05-20T08:59:48.199Z,102091.13
2023-05-20T09:02:16.368Z,102070.16
2023-05-20T09:04:44.001Z,102078.91
2023-05-20T09:07:11.498Z,102074.22
2023-05-20T09:09:41.244Z,102082.75
2023-05-20T09:12:08.825Z,102064.47
2023-05-20T09:14:36.416Z,102079.84
2023-05-20T09:17:05.626Z,102079.00
2023-05-20T09:19:34.493Z,102087.25
2023-05-20T09:22:05.092Z,102076.91
2023-05-20T09:24:32.728Z,102072.59
2023-05-20T09:27:01.653Z,102065.19
2023-05-20T09:29:29.172Z,102075.09
2023-05-20T09:31:57.183Z,102068.72
2023-05-20T09:34:24.754Z,102060.97
2023-05-20T09:36:52.346Z,102065.59
2023-05-20T09:39:30.766Z,102058.13
2023-05-20T09:42:07.809Z,102069.16
2023-05-20T09:44:36.480Z,102061.75
2023-05-20T09:47:04.986Z,102062.47
2023-05-20T09:49:33.989Z,102061.09
2023-05-20T09:52:03.609Z,102059.69
2023-05-20T09:54:33.322Z,102061.50
2023-05-20T09:57:01.589Z,102059.66
2023-05-20T09:59:32.464Z,102064.97
2023-05-20T10:02:00.056Z,102061.59
2023-05-20T10:04:29.331Z,102066.94
2023-05-20T10:07:37.923Z,102058.03
2023-05-20T10:10:21.593Z,102050.28
2023-05-20T10:12:56.661Z,102057.59
2023-05-20T10:15:30.106Z,102060.66
2023-05-20T10:18:08.908Z,102063.06
2023-05-20T10:20:46.229Z,102055.81
2023-05-20T10:23:21.944Z,102058.97
2023-05-20T10:25:53.255Z,102060.47
2023-05-20T10:28:30.398Z,102047.97
2023-05-20T10:30:59.729Z,102042.88
2023-05-20T10:33:28.390Z,102044.88
2023-05-20T10:35:58.933Z,102041.63
2023-05-20T10:38:26.838Z,102039.38
2023-05-20T10:40:54.310Z,102036.72
2023-05-20T10:43:27.607Z,102042.56
2023-05-20T10:45:57.624Z,102035.34
2023-05-20T10:48:28.481Z,102026.44
2023-05-20T10:50:58.041Z,102025.66
2023-05-20T10:53:34.204Z,102021.56
2023-05-20T10:56:02.416Z,102022.84
2023-05-20T10:58:38.502Z,102016.34
2023-05-20T11:01:06.193Z,102016.06
2023-05-20T11:03:36.320Z,102019.31
2023-05-20T11:06:12.407Z,102011.56
2023-05-20T11:08:40.117Z,102010.47
2023-05-20T11:11:08.138Z,101998.16
2023-05-20T11:13:35.670Z,101992.06
2023-05-20T11:16:04.809Z,101994.41
2023-05-20T11:18:33.413Z,101996.31
2023-05-20T11:21:03.291Z,101982.00
2023-05-20T11:23:31.481Z,101999.25
2023-05-20T11:25:59.309Z,101997.38
2023-05-20T11:28:26.796Z,101980.38
2023-05-20T11:30:54.607Z,101980.22
2023-05-20T11:33:22.858Z,101973.41
2023-05-20T11:35:53.198Z,101975.16
2023-05-20T11:38:22.696Z,101969.03
2023-05-20T11:40:53.742Z,101970.81
2023-05-20T11:43:22.841Z,101993.44
2023-05-20T11:45:55.219Z,101971.69
2023-05-20T11:48:23.006Z,101975.16
2023-05-20T11:50:50.511Z,101976.03
2023-05-20T11:53:19.362Z,101979.38
2023-05-20T11:55:50.052Z,101969.94
2023-05-20T11:58:19.331Z,101952.53
2023-05-20T12:00:52.826Z,101956.88
2023-05-20T12:03:22.835Z,101963.00
2023-05-20T12:05:51.234Z,101963.00
2023-05-20T12:08:18.880Z,101949.00
2023-05-20T12:10:47.986Z,101943.03
2023-05-20T12:13:15.840Z,101939.53
2023-05-20T12:15:43.422Z,101937.34
2023-05-20T12:18:11.294Z,101947.38
2023-05-20T12:20:40.153Z,101935.19
2023-05-20T12:23:07.632Z,101934.28
2023-05-20T12:25:35.125Z,101938.66
2023-05-20T12:28:04.225Z,101935.13
2023-05-20T12:30:32.012Z,101922.13
2023-05-20T12:32:59.467Z,101920.25
2023-05-20T12:35:38.934Z,101915.06
2023-05-20T12:38:07.115Z,101911.63
2023-05-20T12:40:35.757Z,101912.59
2023-05-20T12:43:05.990Z,101911.72
2023-05-20T12:45:33.761Z,101903.91
2023-05-20T12:48:01.752Z,101899.56
2023-05-20T12:50:29.705Z,101900.41
2023-05-20T12:52:57.154Z,101897.00
2023-05-20T12:55:24.602Z,101900.44
2023-05-20T12:57:52.225Z,101903.03
2023-05-20T13:00:20.981Z,101895.19
2023-05-20T13:02:48.661Z,101892.59
2023-05-20T13:05:16.393Z,101883.94
2023-05-20T13:07:43.854Z,101872.66
2023-05-20T13:10:12.151Z,101888.25
2023-05-20T13:12:40.387Z,101873.47
2023-05-20T13:15:09.060Z,101873.44
2023-05-20T13:17:38.193Z,101855.13
2023-05-20T13:20:06.641Z,101856.03
2023-05-20T13:22:34.118Z,101859.63
2023-05-20T13:25:01.682Z,101881.31
2023-05-20T13:27:29.233Z,101851.81
2023-05-20T13:29:56.741Z,101850.91
2023-05-20T13:32:24.464Z,101848.16
2023-05-20T13:34:53.259Z,101856.91
2023-05-20T13:37:20.979Z,101848.22
2023-05-20T13:39:49.471Z,101844.00
2023-05-20T13:42:16.984Z,101834.25
2023-05-20T13:44:44.419Z,101827.41
2023-05-20T13:47:11.838Z,101820.31
2023-05-20T13:49:39.286Z,101827.91
2023-05-20T13:52:08.330Z,101839.53
2023-05-20T13:54:36.001Z,101825.41
2023-05-20T13:57:07.730Z,101822.97
2023-05-20T13:59:35.663Z,101813.22
2023-05-20T14:02:03.396Z,101812.38
2023-05-20T14:04:31.544Z,101813.09
2023-05-20T14:07:00.327Z,101814.78
2023-05-20T14:09:29.158Z,101822.03
2023-05-20T14:11:56.704Z,101827.22
2023-05-20T14:14:24.147Z,101810.66
2023-05-20T14:16:51.668Z,101798.50
2023-05-20T14:19:19.240Z,101811.88
2023-05-20T14:21:46.869Z,101794.91
2023-05-20T14:24:14.320Z,101808.94
2023-05-20T14:26:43.081Z,101801.06
2023-05-20T14:29:10.784Z,101802.63
2023-05-20T14:31:38.689Z,101797.31
2023-05-20T14:34:06.142Z,101792.22
2023-05-20T14:36:33.600Z,101795.63
2023-05-20T14:39:01.049Z,101783.47
2023-05-20T14:41:28.801Z,101781.13
2023-05-20T14:43:57.723Z,101778.56
2023-05-20T14:46:25.258Z,101786.41
2023-05-20T14:48:52.717Z,101774.19
2023-05-20T14:51:20.168Z,101773.13
2023-05-20T14:53:47.716Z,101770.47
2023-05-20T14:56:15.180Z,101772.34
2023-05-20T14:58:42.687Z,101785.97
2023-05-20T15:01:11.519Z,101768.00
2023-05-20T15:03:39.324Z,101768.72
2023-05-20T15:06:07.079Z,101769.59
2023-05-20T15:08:34.517Z,101769.44
2023-05-20T15:11:02.039Z,101762.56
2023-05-20T15:13:29.525Z,101762.13
2023-05-20T15:15:56.949Z,101762.97
2023-05-20T15:18:25.787Z,101751.53
2023-05-20T15:20:53.282Z,101741.59
2023-05-20T15:23:20.740Z,101739.94
2023-05-20T15:25:48.541Z,101737.31
2023-05-20T15:28:19.504Z,101743.44
2023-05-20T15:30:47.214Z,101746.94
2023-05-20T15:33:14.808Z,101744.09
2023-05-20T15:35:43.699Z,101738.00
2023-05-20T15:38:11.180Z,101737.81
2023-05-20T15:40:39.538Z,101727.72
2023-05-20T15:43:07.098Z,101722.56
2023-05-20T15:45:34.942Z,101725.91
2023-05-20T15:48:02.487Z,101721.47
2023-05-20T15:50:30.076Z,101726.44
2023-05-20T15:52:58.868Z,101725.63
2023-05-20T15:55:26.587Z,101729.31
2023-05-20T15:57:54.259Z,101721.44
2023-05-20T16:00:22.804Z,101709.81
2023-05-20T16:02:50.595Z,101715.22
2023-05-20T16:05:18.306Z,101707.56
2023-05-20T16:07:46.670Z,101716.72
2023-05-20T16:10:15.510Z,101703.50
2023-05-20T16:12:42.982Z,101716.78
2023-05-20T16:15:11.373Z,101696.50
2023-05-20T16:17:39.237Z,101709.03
2023-05-20T16:20:08.090Z,101696.06
2023-05-20T16:22:35.781Z,101696.22
2023-05-20T16:25:03.333Z,101685.72
2023-05-20T16:27:32.863Z,101678.28
2023-05-20T16:30:00.514Z,101672.34
2023-05-20T16:32:28.104Z,101662.63
2023-05-20T16:34:55.623Z,101663.72
2023-05-20T16:37:23.086Z,101673.66
2023-05-20T16:39:50.555Z,101684.00
2023-05-20T16:42:18.132Z,101675.00
2023-05-20T16:44:47.189Z,101673.28
2023-05-20T16:47:14.632Z,101673.03
2023-05-20T16:49:42.101Z,101675.81
2023-05-20T16:52:09.638Z,101675.00
2023-05-20T16:54:37.104Z,101667.56
2023-05-20T16:57:05.568Z,101660.81
2023-05-20T16:59:34.873Z,101669.16
2023-05-20T17:02:03.747Z,101673.41
2023-05-20T17:04:31.368Z,101668.06
2023-05-20T17:07:01.625Z,101672.34
2023-05-20T17:09:29.573Z,101673.63
2023-05-20T17:11:57.039Z,101664.41
2023-05-20T17:14:24.722Z,101656.53
2023-05-20T17:16:52.316Z,101658.28
2023-05-20T17:19:21.549Z,101659.00
2023-05-20T17:21:48.988Z,101662.91
2023-05-20T17:24:16.581Z,101654.22
2023-05-20T17:26:44.112Z,101659.34
2023-05-20T17:29:11.591Z,101649.44
2023-05-20T17:31:38.994Z,101651.19
2023-05-20T17:34:06.540Z,101651.53
2023-05-20T17:36:35.502Z,101649.84
2023-05-20T17:39:04.422Z,101652.00
2023-05-20T17:41:31.894Z,101652.16
2023-05-20T17:43:59.471Z,101648.78
2023-05-20T17:46:26.941Z,101660.91
2023-05-20T17:48:54.455Z,101652.94
2023-05-20T17:51:21.902Z,101655.34
2023-05-20T17:53:50.809Z,101651.88
2023-05-20T17:56:18.269Z,101652.41
2023-05-20T17:58:46.884Z,101657.16
2023-05-20T18:01:15.018Z,101657.19
2023-05-20T18:03:42.665Z,101654.25
2023-05-20T18:06:10.485Z,101645.28
2023-05-20T18:08:38.077Z,101648.41
2023-05-20T18:11:06.957Z,101637.13
2023-05-20T18:13:34.450Z,101651.63
2023-05-20T18:16:01.977Z,101649.84
2023-05-20T18:18:29.477Z,101655.66
2023-05-20T18:20:56.924Z,101646.41
2023-05-20T18:23:24.405Z,101644.25
2023-05-20T18:25:51.883Z,101649.88
2023-05-20T18:28:20.675Z,101648.69
2023-05-20T18:30:48.125Z,101643.50
2023-05-20T18:33:15.853Z,101647.50
2023-05-20T18:35:43.409Z,101638.19
2023-05-20T18:38:10.960Z,101644.28
2023-05-20T18:40:38.465Z,101649.78
2023-05-20T18:43:06.178Z,101641.66
2023-05-20T18:45:35.085Z,101644.63
2023-05-20T18:48:02.727Z,101650.63
2023-05-20T18:50:30.562Z,101647.41
2023-05-20T18:52:58.258Z,101651.44
2023-05-20T18:55:26.303Z,101651.78
2023-05-20T18:57:53.828Z,101653.16
2023-05-20T19:00:21.473Z,101647.84
2023-05-20T19:02:50.377Z,101651.34
2023-05-20T19:05:18.029Z,101650.09
2023-05-20T19:07:45.645Z,101652.31
2023-05-20T19:10:13.123Z,101654.34
2023-05-20T19:12:40.715Z,101653.44
2023-05-20T19:15:09.490Z,101659.97
2023-05-20T19:17:37.007Z,101659.34
2023-05-20T19:20:07.694Z,101665.81
2023-05-20T19:22:35.785Z,101661.63
2023-05-20T19:25:03.685Z,101668.91
2023-05-20T19:27:31.221Z,101662.19
2023-05-20T19:29:58.698Z,101660.16
2023-05-20T19:32:28.770Z,101666.56
2023-05-20T19:34:59.098Z,101660.03
2023-05-20T19:37:32.165Z,101668.22
2023-05-20T19:39:59.662Z,101675.22
2023-05-20T19:42:27.161Z,101671.69
2023-05-20T19:44:57.424Z,101671.91
2023-05-20T19:47:25.041Z,101670.78
2023-05-20T19:49:52.658Z,101679.22
2023-05-20T19:52:22.429Z,101679.00
2023-05-20T19:54:51.310Z,101682.13
2023-05-20T19:57:19.014Z,101674.19
2023-05-20T19:59:46.775Z,101680.13
2023-05-20T20:02:14.861Z,101678.06
2023-05-20T20:04:42.897Z,101678.47
2023-05-20T20:07:10.939Z,101674.94
2023-05-20T20:09:38.418Z,101675.69
2023-05-20T20:12:09.317Z,101670.31
2023-05-20T20:14:36.921Z,101669.53
2023-05-20T20:17:06.166Z,101667.69
2023-05-20T20:19:35.281Z,101672.13
2023-05-20T20:22:03.101Z,101670.50
2023-05-20T20:24:30.683Z,101667.91
2023-05-20T20:26:58.309Z,101663.19
2023-05-20T20:29:27.238Z,101671.47
2023-05-20T20:31:55.033Z,101670.38
2023-05-20T20:34:22.537Z,101668.47
2023-05-20T20:36:50.698Z,101659.28
2023-05-20T20:39:19.863Z,101658.31
2023-05-20T20:41:50.381Z,101656.69
2023-05-20T20:44:21.050Z,101663.06
2023-05-20T20:46:51.357Z,101654.03
2023-05-20T20:49:19.605Z,101653.41
2023-05-20T20:51:47.379Z,101657.50
2023-05-20T20:54:15.340Z,101658.53
2023-05-20T20:56:45.336Z,101657.84
2023-05-20T20:59:13.605Z,101653.06
2023-05-20T21:01:41.791Z,101661.38
2023-05-20T21:04:13.381Z,101659.72
2023-05-20T21:06:41.956Z,101649.94
2023-05-20T21:09:11.542Z,101649.63
2023-05-20T21:11:42.271Z,101648.91
2023-05-20T21:14:10.044Z,101647.38
2023-05-20T21:16:37.944Z,101639.91
2023-05-20T21:19:06.067Z,101642.41
2023-05-20T21:21:34.992Z,101636.28
2023-05-20T21:24:02.507Z,101637.31
2023-05-20T21:26:29.987Z,101628.50
2023-05-20T21:28:57.437Z,101631.56
2023-05-20T21:31:24.972Z,101623.25
2023-05-20T21:33:52.591Z,101613.94
2023-05-20T21:36:22.136Z,101614.78
2023-05-20T21:38:50.903Z,101622.75
2023-05-20T21:41:18.368Z,101617.44
2023-05-20T21:43:45.820Z,101619.00
2023-05-20T21:46:13.596Z,101615.28
2023-05-20T21:48:41.124Z,101611.47
2023-05-20T21:51:08.582Z,101616.53
2023-05-20T21:53:36.090Z,101613.34
2023-05-20T21:56:05.455Z,101616.34
2023-05-20T21:58:33.212Z,101619.91
2023-05-20T22:01:00.733Z,101624.38
2023-05-20T22:03:28.399Z,101620.19
2023-05-20T22:05:56.191Z,101624.50
2023-05-20T22:08:23.689Z,101615.59
2023-05-20T22:10:51.147Z,101614.97
2023-05-20T22:13:20.597Z,101622.97
2023-05-20T22:15:48.093Z,101615.59
2023-05-20T22:18:15.692Z,101606.22
2023-05-20T22:20:43.741Z,101602.41
2023-05-20T22:23:11.247Z,101602.41
2023-05-20T22:25:38.722Z,101600.41
2023-05-20T22:28:06.196Z,101604.88
2023-05-20T22:30:35.576Z,101606.00
2023-05-20T22:33:03.070Z,101610.31
2023-05-20T22:35:30.608Z,101611.41
2023-05-20T22:38:00.159Z,101607.81
2023-05-20T22:40:27.772Z,101600.56
2023-05-20T22:42:55.246Z,101597.06
2023-05-20T22:45:22.716Z,101607.03
2023-05-20T22:47:51.688Z,101595.44
2023-05-20T22:50:19.214Z,101598.97
2023-05-20T22:52:46.675Z,101588.28
2023-05-20T22:55:14.090Z,101606.03
2023-05-20T22:57:41.578Z,101597.16
2023-05-20T23:00:10.900Z,101594.66
2023-05-20T23:02:41.478Z,101591.88
2023-05-20T23:05:11.819Z,101590.63
2023-05-20T23:07:39.418Z,101572.53
2023-05-20T23:10:07.558Z,101584.09
2023-05-20T23:12:35.001Z,101578.09
2023-05-20T23:15:02.627Z,101578.16
2023-05-20T23:17:30.216Z,101573.13
2023-05-20T23:19:57.733Z,101570.41
2023-05-20T23:22:26.794Z,101567.84
2023-05-20T23:24:54.258Z,101563.19
2023-05-20T23:27:21.717Z,101558.53
2023-05-20T23:29:49.186Z,101546.75
2023-05-20T23:32:16.612Z,101550.84
2023-05-20T23:34:46.474Z,101551.97
2023-05-20T23:37:14.226Z,101557.47
2023-05-20T23:39:42.978Z,101554.06
2023-05-20T23:42:10.474Z,101556.69
2023-05-20T23:44:37.942Z,101555.97
2023-05-20T23:47:07.545Z,101549.75
2023-05-20T23:49:35.372Z,101555.97
2023-05-20T23:52:03.439Z,101554.59
2023-05-20T23:54:34.261Z,101565.81
2023-05-20T23:57:03.235Z,101551.56
2023-05-20T23:59:30.977Z,101550.38
